Het weer levert geen direct gevaar op.    Er zijn geen waarschuwingen afgegeven.








webcam  webcam


webcam 2   webcam 2


Onweer radar Meer informatie blitzortung!


Regen radar Meer informatie rain snow radar


Bezoek onze andere website:

Template documentation
and downloads

And another site

weerstation wsnoordbergum

weerstationlembeke



METAR rapporten vliegvelden

   
EHAM - Amsterdam
Gewijzigd: 20-03-2019 00:25
Helder  
Helder  
   Wind: Zuiden 9.3 km/h
Wind: Zuiden 9.3 km/h
Temperatuur: 7°C
Voelt als: 5°C
Dauwpunt: 5°C
Vochtigheid: 87%
Barometer: 1030 hPa
Zicht: meer dan 10 km
Bewolking: Helder
EHAM 192325Z 19005KT CAVOK 07/05 Q1030 NOSIG
EHRD - Rotterdam
Gewijzigd: 20-03-2019 00:25
Gedeeltelijk bewolkt  
Gedeeltelijk bewolkt  
   Wind: ZZW 7.4 km/h
Wind: ZZW 7.4 km/h
Temperatuur: 8°C
Voelt als: 7°C
Dauwpunt: 6°C
Vochtigheid: 87%
Barometer: 1030 hPa
Bewolking: Gedeeltelijk bewolkt
Zicht: meer dan 10 km
Bewolking: Gedeeltelijk bewolkt
EHRD 192325Z AUTO 20004KT 170V240 9999 NSC 08/06 Q1030 NOSIG
EHLW - Leeuwarden
Gewijzigd: 20-03-2019 00:35
Nevel, Helder  
Nevel, Helder  
   Wind: Zuiden 9.3 km/h
Wind: Zuiden 9.3 km/h
Temperatuur: 4°C
Voelt als: 2°C
Dauwpunt: 4°C
Vochtigheid: 100%
Barometer: 1029 hPa
Bewolking: Helder
Zicht: 4 km
Bewolking: Helder
EHLW 192335Z AUTO 19005KT 3600 BR NCD 04/04 Q1029 YLO
EHGG - Groningen
Gewijzigd: 20-03-2019 00:25
Gedeeltelijk bewolkt  
Gedeeltelijk bewolkt  
   Wind: ZZW 9.3 km/h
Wind: ZZW 9.3 km/h
Temperatuur: 4°C
Voelt als: 2°C
Dauwpunt: 2°C
Vochtigheid: 87%
Barometer: 1029 hPa
Bewolking: Gedeeltelijk bewolkt
Zicht: meer dan 10 km
Bewolking: Gedeeltelijk bewolkt
EHGG 192325Z AUTO 21005KT 9999 NSC 04/02 Q1029
  

Script ontwikkeld door  Saratoga-weather.org Aangepast voor de template door  Weerstation Leuven

U vindt ons ook hier:

Het Weer Aktueel

European Weather Network

WeatherCloud

Weather Underground

AWEKAS

HAMweather, WeatherForYou, PWS Weather

Apparatuur in gebruik:

Weerstation
Davis VP2

Weerprogramma
Meteobridge

Weercomputer
Asus WL -330N3G

Webleverancier
Hostnet

Davis VP2

Meteobridge

Asus WL -330N3G

Hostnet